createdAt,value
2018-12-10T00:00:41.509Z,25.33
2018-12-10T00:03:17.939Z,25.83
2018-12-10T00:05:48.916Z,25.47
2018-12-10T00:08:18.301Z,26.17
2018-12-10T00:10:47.419Z,25.07
2018-12-10T00:13:17.246Z,25.47
2018-12-10T00:15:46.309Z,25.87
2018-12-10T00:18:15.498Z,25.17
2018-12-10T00:20:44.598Z,23.03
2018-12-10T00:23:13.726Z,23.73
2018-12-10T00:25:42.807Z,23.40
2018-12-10T00:28:11.940Z,22.83
2018-12-10T00:30:40.983Z,23.30
2018-12-10T00:33:10.106Z,22.37
2018-12-10T00:35:39.329Z,23.63
2018-12-10T00:38:08.391Z,21.90
2018-12-10T00:40:37.401Z,21.43
2018-12-10T00:43:06.498Z,23.67
2018-12-10T00:45:35.560Z,22.33
2018-12-10T00:48:04.869Z,22.50
2018-12-10T00:50:33.984Z,21.97
2018-12-10T00:53:03.209Z,22.10
2018-12-10T00:55:32.313Z,21.70
2018-12-10T00:58:01.417Z,21.10
2018-12-10T01:00:30.442Z,21.20
2018-12-10T01:02:59.693Z,21.10
2018-12-10T01:05:28.682Z,22.40
2018-12-10T01:07:57.701Z,20.87
2018-12-10T01:10:26.789Z,20.27
2018-12-10T01:12:55.849Z,19.53
2018-12-10T01:15:24.840Z,20.03
2018-12-10T01:17:53.887Z,21.13
2018-12-10T01:20:23.037Z,21.77
2018-12-10T01:22:52.178Z,20.87
2018-12-10T01:25:21.342Z,20.70
2018-12-10T01:27:50.415Z,22.50
2018-12-10T01:30:19.421Z,22.27
2018-12-10T01:32:48.482Z,22.63
2018-12-10T01:35:17.554Z,22.43
2018-12-10T01:37:46.566Z,22.07
2018-12-10T01:40:15.716Z,23.33
2018-12-10T01:42:44.723Z,21.17
2018-12-10T01:45:13.712Z,20.70
2018-12-10T01:47:42.772Z,18.80
2018-12-10T01:50:11.822Z,18.13
2018-12-10T01:52:40.893Z,16.30
2018-12-10T01:55:10.038Z,16.13
2018-12-10T01:57:39.108Z,15.30
2018-12-10T02:00:08.594Z,12.77
2018-12-10T02:02:38.389Z,12.30
2018-12-10T02:05:07.400Z,11.10
2018-12-10T02:07:36.542Z,12.47
2018-12-10T02:10:06.801Z,11.60
2018-12-10T02:12:35.948Z,12.03
2018-12-10T02:15:05.711Z,12.20
2018-12-10T02:17:34.763Z,12.43
2018-12-10T02:20:03.893Z,11.60
2018-12-10T02:22:32.879Z,11.60
2018-12-10T02:25:02.438Z,9.83
2018-12-10T02:27:31.498Z,11.13
2018-12-10T02:30:00.604Z,10.60
2018-12-10T02:32:29.846Z,11.03
2018-12-10T02:34:59.008Z,10.13
2018-12-10T02:37:28.000Z,11.07
2018-12-10T02:39:57.018Z,11.40
2018-12-10T02:42:26.057Z,10.17
2018-12-10T02:44:55.139Z,10.17
2018-12-10T02:47:24.270Z,10.30
2018-12-10T02:49:53.365Z,11.13
2018-12-10T02:52:22.422Z,10.57
2018-12-10T02:54:51.497Z,9.97
2018-12-10T02:57:20.607Z,10.47
2018-12-10T02:59:49.617Z,11.00
2018-12-10T03:02:18.735Z,11.60
2018-12-10T03:04:47.833Z,10.23
2018-12-10T03:07:16.921Z,11.37
2018-12-10T03:09:45.983Z,11.03
2018-12-10T03:12:15.017Z,10.37
2018-12-10T03:14:44.119Z,11.20
2018-12-10T03:17:13.240Z,10.70
2018-12-10T03:19:42.312Z,11.73
2018-12-10T03:22:11.426Z,12.50
2018-12-10T03:24:40.520Z,12.90
2018-12-10T03:27:09.731Z,11.27
2018-12-10T03:29:38.872Z,11.10
2018-12-10T03:32:08.059Z,9.80
2018-12-10T03:34:37.157Z,10.30
2018-12-10T03:37:06.263Z,11.73
2018-12-10T03:39:35.371Z,11.83
2018-12-10T03:42:04.427Z,11.63
2018-12-10T03:44:33.601Z,11.03
2018-12-10T03:47:02.644Z,10.80
2018-12-10T03:49:31.673Z,9.90
2018-12-10T03:52:00.707Z,10.17
2018-12-10T03:54:29.770Z,10.53
2018-12-10T03:56:58.877Z,10.37
2018-12-10T03:59:27.933Z,10.53
2018-12-10T04:01:57.159Z,9.37
2018-12-10T04:04:26.163Z,8.47
2018-12-10T04:06:55.198Z,7.57
2018-12-10T04:09:24.217Z,8.27
2018-12-10T04:11:53.225Z,8.03
2018-12-10T04:14:22.292Z,7.77
2018-12-10T04:16:51.371Z,6.57
2018-12-10T04:19:20.570Z,7.00
2018-12-10T04:21:49.672Z,6.67
2018-12-10T04:24:18.785Z,5.23
2018-12-10T04:26:47.901Z,6.97
2018-12-10T04:29:16.999Z,6.77
2018-12-10T04:31:46.262Z,6.23
2018-12-10T04:34:15.337Z,6.13
2018-12-10T04:36:44.454Z,7.03
2018-12-10T04:39:13.702Z,7.13
2018-12-10T04:41:42.761Z,6.60
2018-12-10T04:44:11.824Z,7.67
2018-12-10T04:46:41.036Z,8.03
2018-12-10T04:49:10.144Z,8.57
2018-12-10T04:51:39.154Z,8.50
2018-12-10T04:54:08.290Z,8.67
2018-12-10T04:56:37.362Z,8.30
2018-12-10T04:59:06.427Z,8.57
2018-12-10T05:01:35.493Z,9.57
2018-12-10T05:04:04.537Z,9.57
2018-12-10T05:06:33.531Z,9.40
2018-12-10T05:09:02.796Z,8.63
2018-12-10T05:11:33.769Z,7.70
2018-12-10T05:14:02.785Z,7.57
2018-12-10T05:16:31.857Z,6.47
2018-12-10T05:19:00.967Z,7.07
2018-12-10T05:21:30.130Z,7.30
2018-12-10T05:23:59.294Z,6.30
2018-12-10T05:26:28.462Z,6.30
2018-12-10T05:28:58.225Z,7.80
2018-12-10T05:31:27.294Z,7.07
2018-12-10T05:33:56.287Z,7.53
2018-12-10T05:36:25.311Z,6.53
2018-12-10T05:38:54.953Z,6.30
2018-12-10T05:41:24.046Z,5.70
2018-12-10T05:43:53.081Z,5.20
2018-12-10T05:46:22.146Z,6.17
2018-12-10T05:48:51.169Z,6.17
2018-12-10T05:51:21.029Z,5.80
2018-12-10T05:53:50.054Z,5.40
2018-12-10T05:56:19.093Z,6.87
2018-12-10T05:58:48.209Z,5.00
2018-12-10T06:01:17.317Z,6.00
2018-12-10T06:03:46.357Z,5.40
2018-12-10T06:06:15.539Z,5.70
2018-12-10T06:08:44.574Z,6.20
2018-12-10T06:11:13.640Z,6.40
2018-12-10T06:13:42.638Z,6.50
2018-12-10T06:16:11.728Z,9.60
2018-12-10T06:18:40.770Z,7.93
2018-12-10T06:21:09.846Z,8.80
2018-12-10T06:23:38.901Z,7.77
2018-12-10T06:26:08.029Z,8.40
2018-12-10T06:28:37.215Z,7.83
2018-12-10T06:31:06.320Z,9.00
2018-12-10T06:33:35.345Z,8.57
2018-12-10T06:36:04.449Z,8.90
2018-12-10T06:38:33.540Z,8.07
2018-12-10T06:41:02.750Z,7.83
2018-12-10T06:43:31.861Z,8.87
2018-12-10T06:46:00.927Z,9.63
2018-12-10T06:48:29.948Z,7.23
2018-12-10T06:50:59.037Z,7.37
2018-12-10T06:53:28.193Z,7.23
2018-12-10T06:55:57.220Z,7.77
2018-12-10T06:58:26.309Z,8.00
2018-12-10T07:00:55.454Z,6.27
2018-12-10T07:03:24.460Z,7.97
2018-12-10T07:05:53.515Z,5.60
2018-12-10T07:08:22.870Z,5.70
2018-12-10T07:10:51.869Z,6.97
2018-12-10T07:13:20.853Z,5.87
2018-12-10T07:15:50.008Z,5.00
2018-12-10T07:18:19.325Z,3.70
2018-12-10T07:20:49.837Z,3.40
2018-12-10T07:23:18.938Z,3.77
2018-12-10T07:25:47.933Z,3.47
2018-12-10T07:28:16.918Z,4.20
2018-12-10T07:30:45.992Z,4.03
2018-12-10T07:33:15.114Z,4.10
2018-12-10T07:35:44.213Z,3.83
2018-12-10T07:38:14.460Z,3.73
2018-12-10T07:40:43.563Z,3.90
2018-12-10T07:43:12.659Z,4.10
2018-12-10T07:45:41.795Z,3.80
2018-12-10T07:48:10.816Z,4.00
2018-12-10T07:50:39.810Z,4.20
2018-12-10T07:53:08.913Z,3.90
2018-12-10T07:55:38.050Z,4.30
2018-12-10T07:58:07.142Z,4.40
2018-12-10T08:00:36.303Z,4.97
2018-12-10T08:03:05.436Z,3.97
2018-12-10T08:05:34.429Z,5.20
2018-12-10T08:08:03.503Z,4.97
2018-12-10T08:10:32.577Z,7.10
2018-12-10T08:13:01.846Z,5.17
2018-12-10T08:15:30.926Z,4.60
2018-12-10T08:18:00.015Z,5.20
2018-12-10T08:20:29.041Z,6.60
2018-12-10T08:22:58.218Z,5.77
2018-12-10T08:25:27.329Z,5.80
2018-12-10T08:27:56.582Z,5.57
2018-12-10T08:30:25.677Z,6.50
2018-12-10T08:32:54.680Z,7.17
2018-12-10T08:35:23.688Z,9.30
2018-12-10T08:37:52.915Z,15.03
2018-12-10T08:40:22.059Z,13.43
2018-12-10T08:42:51.385Z,12.73
2018-12-10T08:45:20.561Z,10.30
2018-12-10T08:47:49.961Z,9.33
2018-12-10T08:50:18.982Z,9.23
2018-12-10T08:52:52.861Z,10.93
2018-12-10T08:55:22.006Z,9.97
2018-12-10T08:57:51.239Z,10.63
2018-12-10T09:00:35.451Z,11.33
2018-12-10T09:03:04.699Z,10.90
2018-12-10T09:05:33.830Z,10.10
2018-12-10T09:08:03.082Z,9.70
2018-12-10T09:10:32.159Z,9.23
2018-12-10T09:13:01.200Z,11.43
2018-12-10T09:15:30.221Z,9.70
2018-12-10T09:17:59.224Z,8.63
2018-12-10T09:20:28.309Z,9.03
2018-12-10T09:22:57.371Z,9.30
2018-12-10T09:25:26.440Z,8.97
2018-12-10T09:27:55.537Z,8.97
2018-12-10T09:30:28.033Z,8.80
2018-12-10T09:32:58.886Z,9.47
2018-12-10T09:35:28.562Z,9.13
2018-12-10T09:37:57.789Z,10.73
2018-12-10T09:40:26.793Z,9.73
2018-12-10T09:42:55.803Z,9.10
2018-12-10T09:45:24.852Z,10.40
2018-12-10T09:47:53.994Z,9.50
2018-12-10T09:50:23.211Z,9.93
2018-12-10T09:52:52.221Z,10.33
2018-12-10T09:55:22.385Z,15.07
2018-12-10T09:57:51.551Z,14.03
2018-12-10T10:00:20.701Z,13.00
2018-12-10T10:02:51.607Z,11.73
2018-12-10T10:05:20.876Z,12.30
2018-12-10T10:07:50.001Z,12.67
2018-12-10T10:10:19.119Z,12.80
2018-12-10T10:12:48.193Z,13.10
2018-12-10T10:15:17.240Z,14.37
2018-12-10T10:17:46.237Z,12.30
2018-12-10T10:20:15.256Z,12.80
2018-12-10T10:22:44.912Z,14.27
2018-12-10T10:25:13.992Z,12.43
2018-12-10T10:27:43.178Z,13.43
2018-12-10T10:30:12.200Z,13.33
2018-12-10T10:32:42.576Z,13.27
2018-12-10T10:35:11.693Z,14.20
2018-12-10T10:37:40.858Z,13.40
2018-12-10T10:40:09.876Z,13.90
2018-12-10T10:42:38.956Z,12.90
2018-12-10T10:45:07.937Z,13.03
2018-12-10T10:47:38.147Z,13.10
2018-12-10T10:57:23.468Z,13.23
2018-12-10T11:09:37.069Z,13.53
2018-12-10T11:21:50.701Z,15.23
2018-12-10T11:31:37.370Z,13.33
2018-12-10T11:41:22.677Z,12.53
2018-12-10T11:43:51.305Z,12.43
2018-12-10T11:57:39.465Z,15.23
2018-12-10T12:00:12.612Z,12.00
2018-12-10T12:02:41.846Z,14.33
2018-12-10T12:05:15.173Z,12.17
2018-12-10T12:07:44.316Z,13.93
2018-12-10T12:10:13.364Z,15.93
2018-12-10T12:12:42.512Z,12.50
2018-12-10T12:15:11.588Z,12.20
2018-12-10T12:17:40.600Z,12.00
2018-12-10T12:20:10.424Z,13.17
2018-12-10T12:22:40.723Z,12.70
2018-12-10T12:25:09.761Z,13.40
2018-12-10T12:27:39.106Z,11.67
2018-12-10T12:30:09.128Z,11.27
2018-12-10T12:32:38.793Z,10.53
2018-12-10T12:35:07.793Z,10.23
2018-12-10T12:37:36.862Z,11.60
2018-12-10T12:40:06.026Z,11.93
2018-12-10T12:42:35.034Z,11.93
2018-12-10T12:45:04.315Z,12.33
2018-12-10T12:47:33.446Z,16.37
2018-12-10T12:50:02.569Z,14.63
2018-12-10T12:52:31.741Z,12.60
2018-12-10T12:55:00.954Z,12.10
2018-12-10T12:57:30.085Z,16.97
2018-12-10T12:59:59.121Z,22.50
2018-12-10T13:02:28.405Z,25.07
2018-12-10T13:04:57.402Z,18.00
2018-12-10T13:07:26.481Z,15.07
2018-12-10T13:09:55.517Z,17.60
2018-12-10T13:12:24.626Z,15.60
2018-12-10T13:14:53.777Z,16.90
2018-12-10T13:17:23.149Z,14.67
2018-12-10T13:19:52.341Z,15.33
2018-12-10T13:22:21.507Z,15.97
2018-12-10T13:24:50.503Z,13.10
2018-12-10T13:27:19.571Z,12.07
2018-12-10T13:29:48.702Z,12.83
2018-12-10T13:32:17.787Z,10.60
2018-12-10T13:34:46.896Z,11.00
2018-12-10T13:37:15.966Z,11.60
2018-12-10T13:39:44.968Z,14.00
2018-12-10T13:42:14.100Z,14.03
2018-12-10T13:44:43.112Z,15.40
2018-12-10T13:47:12.120Z,13.37
2018-12-10T13:49:41.268Z,12.23
2018-12-10T13:52:10.285Z,14.77
2018-12-10T13:54:39.371Z,14.43
2018-12-10T13:57:08.436Z,15.13
2018-12-10T13:59:37.853Z,17.10
2018-12-10T14:02:06.850Z,15.27
2018-12-10T14:04:43.286Z,14.00
2018-12-10T14:07:12.490Z,11.07
2018-12-10T14:09:41.869Z,10.73
2018-12-10T14:12:11.045Z,10.83
2018-12-10T14:14:40.225Z,10.70
2018-12-10T14:17:09.305Z,10.90
2018-12-10T14:19:38.365Z,12.87
2018-12-10T14:22:07.574Z,12.63
2018-12-10T14:24:36.702Z,16.03
2018-12-10T14:27:05.757Z,19.10
2018-12-10T14:29:34.829Z,18.60
2018-12-10T14:32:03.949Z,17.90
2018-12-10T14:34:33.130Z,14.90
2018-12-10T14:37:02.220Z,15.03
2018-12-10T14:39:31.365Z,16.50
2018-12-10T14:42:00.674Z,18.37
2018-12-10T14:44:29.661Z,21.63
2018-12-10T14:46:58.652Z,16.93
2018-12-10T14:49:27.851Z,13.10
2018-12-10T14:51:56.994Z,12.53
2018-12-10T14:54:26.028Z,11.40
2018-12-10T14:56:55.052Z,10.43
2018-12-10T14:59:24.041Z,9.70
2018-12-10T15:01:53.020Z,10.30
2018-12-10T15:04:22.170Z,10.53
2018-12-10T15:06:51.186Z,8.77
2018-12-10T15:09:20.223Z,10.80
2018-12-10T15:11:49.518Z,15.67
2018-12-10T15:14:18.533Z,13.20
2018-12-10T15:16:47.505Z,12.20
2018-12-10T15:19:16.558Z,12.13
2018-12-10T15:21:45.726Z,12.83
2018-12-10T15:24:14.786Z,13.40
2018-12-10T15:26:43.885Z,12.70
2018-12-10T15:29:12.952Z,12.17
2018-12-10T15:31:42.051Z,13.23
2018-12-10T15:34:11.069Z,10.03
2018-12-10T15:36:40.082Z,10.40
2018-12-10T15:39:09.221Z,10.20
2018-12-10T15:41:38.288Z,9.43
2018-12-10T15:44:07.424Z,8.00
2018-12-10T15:46:36.404Z,8.60
2018-12-10T15:49:05.581Z,10.40
2018-12-10T15:51:34.711Z,10.30
2018-12-10T15:54:03.708Z,10.07
2018-12-10T15:56:32.741Z,8.73
2018-12-10T15:59:01.730Z,9.27
2018-12-10T16:01:30.743Z,9.07
2018-12-10T16:03:59.793Z,9.13
2018-12-10T16:06:28.874Z,9.63
2018-12-10T16:08:57.913Z,8.43
2018-12-10T16:11:27.589Z,9.60
2018-12-10T16:13:56.694Z,9.10
2018-12-10T16:16:25.733Z,8.20
2018-12-10T16:18:54.993Z,10.13
2018-12-10T16:21:24.122Z,9.30
2018-12-10T16:23:53.177Z,11.67
2018-12-10T16:26:22.266Z,10.53
2018-12-10T16:28:51.349Z,13.00
2018-12-10T16:31:20.344Z,12.37
2018-12-10T16:33:49.485Z,12.30
2018-12-10T16:36:18.653Z,9.70
2018-12-10T16:38:49.162Z,10.43
2018-12-10T16:41:18.237Z,10.27
2018-12-10T16:43:47.293Z,10.13
2018-12-10T16:46:16.289Z,9.50
2018-12-10T16:48:45.390Z,8.20
2018-12-10T16:51:14.562Z,9.23
2018-12-10T16:53:43.649Z,9.80
2018-12-10T16:56:12.757Z,9.23
2018-12-10T17:05:59.853Z,9.27
2018-12-10T17:15:46.493Z,11.33
2018-12-10T17:18:15.049Z,13.60
2018-12-10T17:20:44.041Z,10.63
2018-12-10T17:23:13.065Z,10.77
2018-12-10T17:25:42.057Z,11.13
2018-12-10T17:28:11.067Z,12.10
2018-12-10T17:30:40.170Z,11.57
2018-12-10T17:33:09.213Z,11.33
2018-12-10T17:35:38.921Z,13.57
2018-12-10T17:38:08.290Z,13.07
2018-12-10T17:40:37.349Z,12.93
2018-12-10T17:43:06.428Z,13.43
2018-12-10T17:45:37.290Z,13.50
2018-12-10T17:48:07.147Z,15.00
2018-12-10T17:50:36.178Z,14.30
2018-12-10T17:53:05.257Z,13.03
2018-12-10T17:55:34.406Z,12.60
2018-12-10T17:58:03.396Z,13.27
2018-12-10T18:00:32.447Z,13.73
2018-12-10T18:03:01.655Z,13.30
2018-12-10T18:05:30.891Z,11.63
2018-12-10T18:07:59.915Z,12.77
2018-12-10T18:10:28.921Z,11.57
2018-12-10T18:12:57.996Z,11.10
2018-12-10T18:15:27.297Z,10.57
2018-12-10T18:17:56.388Z,10.47
2018-12-10T18:20:25.401Z,10.00
2018-12-10T18:22:54.579Z,10.80
2018-12-10T18:25:23.646Z,10.13
2018-12-10T18:27:53.055Z,9.47
2018-12-10T18:30:22.132Z,9.87
2018-12-10T18:32:51.314Z,9.17
2018-12-10T18:35:20.401Z,9.53
2018-12-10T18:37:49.953Z,9.90
2018-12-10T18:40:19.118Z,11.47
2018-12-10T18:42:48.210Z,9.70
2018-12-10T18:45:18.305Z,8.77
2018-12-10T18:47:47.296Z,9.00
2018-12-10T18:50:16.307Z,14.30
2018-12-10T18:52:45.353Z,15.13
2018-12-10T18:55:14.459Z,9.63
2018-12-10T18:57:43.481Z,9.23
2018-12-10T19:00:14.069Z,8.73
2018-12-10T19:02:43.776Z,9.73
2018-12-10T19:05:12.900Z,18.90
2018-12-10T19:07:41.965Z,24.23
2018-12-10T19:10:11.016Z,18.73
2018-12-10T19:12:41.445Z,11.87
2018-12-10T19:15:10.703Z,10.33
2018-12-10T19:17:40.256Z,10.53
2018-12-10T19:20:13.626Z,14.17
2018-12-10T19:22:40.470Z,13.33
2018-12-10T19:25:09.508Z,15.20
2018-12-10T19:27:38.815Z,13.00
2018-12-10T19:30:07.887Z,13.43
2018-12-10T19:32:37.037Z,11.83
2018-12-10T19:35:06.065Z,12.77
2018-12-10T19:37:35.290Z,13.37
2018-12-10T19:40:04.649Z,12.93
2018-12-10T19:42:33.801Z,17.33
2018-12-10T19:45:02.957Z,13.97
2018-12-10T19:47:33.027Z,14.57
2018-12-10T19:50:02.103Z,13.57
2018-12-10T19:52:31.157Z,14.47
2018-12-10T19:55:00.254Z,14.03
2018-12-10T19:57:29.476Z,15.30
2018-12-10T19:59:58.468Z,15.30
2018-12-10T20:02:27.671Z,17.13
2018-12-10T20:04:56.850Z,17.43
2018-12-10T20:07:25.953Z,18.43
2018-12-10T20:09:55.038Z,17.17
2018-12-10T20:12:24.103Z,16.57
2018-12-10T20:14:53.162Z,27.70
2018-12-10T20:17:22.285Z,20.73
2018-12-10T20:19:51.385Z,16.57
2018-12-10T20:22:20.378Z,13.63
2018-12-10T20:24:49.548Z,13.47
2018-12-10T20:27:19.503Z,15.00
2018-12-10T20:29:48.709Z,15.27
2018-12-10T20:32:17.846Z,14.37
2018-12-10T20:34:46.923Z,13.50
2018-12-10T20:37:17.088Z,15.23
2018-12-10T20:39:46.069Z,13.93
2018-12-10T20:42:15.142Z,14.43
2018-12-10T20:44:44.281Z,13.23
2018-12-10T20:47:14.394Z,15.20
2018-12-10T20:49:43.412Z,15.77
2018-12-10T20:52:12.609Z,16.00
2018-12-10T20:54:41.747Z,16.17
2018-12-10T20:57:10.857Z,17.07
2018-12-10T20:59:40.022Z,21.93
2018-12-10T21:02:09.127Z,18.67
2018-12-10T21:04:38.123Z,18.03
2018-12-10T21:07:07.200Z,15.63
2018-12-10T21:09:36.210Z,15.93
2018-12-10T21:12:05.378Z,15.53
2018-12-10T21:14:34.408Z,15.53
2018-12-10T21:17:03.821Z,14.63
2018-12-10T21:19:33.021Z,14.50
2018-12-10T21:22:02.065Z,15.27
2018-12-10T21:24:31.212Z,15.67
2018-12-10T21:27:00.301Z,15.10
2018-12-10T21:29:29.310Z,15.30
2018-12-10T21:31:58.397Z,14.57
2018-12-10T21:34:27.591Z,14.90
2018-12-10T21:36:56.596Z,14.47
2018-12-10T21:39:25.719Z,14.43
2018-12-10T21:41:54.874Z,14.07
2018-12-10T21:44:23.920Z,12.63
2018-12-10T21:46:53.051Z,13.00
2018-12-10T21:49:22.246Z,13.13
2018-12-10T21:51:51.369Z,12.67
2018-12-10T21:54:20.660Z,12.40
2018-12-10T21:56:49.765Z,12.43
2018-12-10T21:59:19.588Z,12.60
2018-12-10T22:01:48.593Z,13.03
2018-12-10T22:04:17.751Z,13.60
2018-12-10T22:06:47.975Z,13.77
2018-12-10T22:09:16.985Z,14.50
2018-12-10T22:11:46.000Z,14.40
2018-12-10T22:14:15.017Z,15.00
2018-12-10T22:16:44.215Z,14.03
2018-12-10T22:19:13.234Z,14.90
2018-12-10T22:21:42.403Z,15.47
2018-12-10T22:24:11.501Z,13.97
2018-12-10T22:26:40.488Z,13.33
2018-12-10T22:29:09.520Z,13.90
2018-12-10T22:31:38.543Z,14.13
2018-12-10T22:34:08.660Z,14.40
2018-12-10T22:36:37.741Z,14.70
2018-12-10T22:39:07.733Z,15.27
2018-12-10T22:41:36.932Z,15.90
2018-12-10T22:44:05.961Z,16.77
2018-12-10T22:46:35.117Z,16.90
2018-12-10T22:49:04.273Z,16.37
2018-12-10T22:51:33.345Z,15.73
2018-12-10T22:54:02.425Z,15.90
2018-12-10T22:56:31.591Z,14.83
2018-12-10T22:59:00.657Z,14.60
2018-12-10T23:01:29.737Z,14.80
2018-12-10T23:03:58.948Z,14.33
2018-12-10T23:06:27.942Z,13.50
2018-12-10T23:08:56.916Z,13.00
2018-12-10T23:11:26.204Z,13.73
2018-12-10T23:13:55.205Z,12.93
2018-12-10T23:16:25.374Z,12.87
2018-12-10T23:18:54.566Z,13.73
2018-12-10T23:21:23.729Z,13.53
2018-12-10T23:23:52.767Z,13.03
2018-12-10T23:26:21.901Z,12.57
2018-12-10T23:28:51.047Z,13.37
2018-12-10T23:31:20.101Z,12.77
2018-12-10T23:33:49.137Z,12.47
2018-12-10T23:36:18.285Z,11.70
2018-12-10T23:38:47.565Z,13.37
2018-12-10T23:41:16.653Z,11.43
2018-12-10T23:43:45.736Z,11.70
2018-12-10T23:46:14.785Z,11.93
2018-12-10T23:48:43.822Z,12.17
2018-12-10T23:51:12.914Z,12.13
2018-12-10T23:53:41.947Z,12.27
2018-12-10T23:56:10.997Z,12.60
2018-12-10T23:58:40.246Z,12.03
